Anabel, Missouri
Current Conditions -  °F | °C
As of 4:55 PM on Saturday 22 Nov 2014 (Local Time) from KIRK Reporting Station
Overcast Overcast  
Wind Chill: 58°   Ceiling: 2600
Heat Index: 58°   Visibility: 10mi
Dew Point: 51°   Wind: 12mph
Humidity: 78%   Direction: 190°S
Pressure: 29.82"   Gusts: NA
Location:  39.75°N, 92.34°W
Report Text: KIRK 222255Z AUTO 19010KT 10SM OVC026 14/11 A2982 RMK AO2 SLP102 T01440106
Loading
Personal Weather Stations






























Interactive Weather Map New forecast layout! Learn more

10-Day Weather Forecast

Advertisements
Track Severe Weather on mobile